Time;durP1;ratioP1;P1;durP2;ratioP2;P2;SDS_P1;SDS_P2;PMS_P1;PMS_P2;Temp;Humidity;BMP_temperature;BMP_pressure;BME280_temperature;BME280_humidity;BME280_pressure;Samples;Min_cycle;Max_cycle;Signal;HPM_P1;HPM_P2
2023/09/03 00:01:27;;;;;;;;;3.75;3.75;;;;;25.26;73.12;101478.41;4906698;29;45785;-81
2023/09/03 00:03:52;;;;;;;;;2.50;2.50;;;;;25.24;73.21;101477.56;4890495;29;44806;-81
2023/09/03 00:06:17;;;;;;;;;4.00;4.00;;;;;25.23;72.94;101472.16;4908177;29;44911;-81
2023/09/03 00:08:45;;;;;;;;;4.50;4.50;;;;;25.32;73.17;101474.56;4909035;29;44741;-82
2023/09/03 00:11:15;;;;;;;;;3.00;3.00;;;;;25.37;73.52;101471.69;4909550;29;45449;-81
2023/09/03 00:13:47;;;;;;;;;3.50;3.00;;;;;25.37;73.54;101483.50;4908255;29;45427;-81
2023/09/03 00:16:13;;;;;;;;;2.00;2.00;;;;;25.18;73.72;101475.03;4889612;29;45415;-81
2023/09/03 00:18:38;;;;;;;;;3.75;3.75;;;;;25.17;74.13;101481.44;4891405;29;44865;-81
2023/09/03 00:21:05;;;;;;;;;3.00;3.00;;;;;25.21;73.49;101485.88;4890204;29;47270;-81
2023/09/03 00:23:32;;;;;;;;;3.00;3.00;;;;;25.10;74.06;101468.97;4890222;29;45392;-82
2023/09/03 00:26:01;;;;;;;;;4.25;4.25;;;;;25.26;73.82;101485.69;4908159;29;45364;-82
2023/09/03 00:28:27;;;;;;;;;3.25;3.25;;;;;25.17;74.30;101489.59;4890945;29;45155;-82
2023/09/03 00:31:04;;;;;;;;;2.00;2.00;;;;;25.25;74.56;101487.53;4875844;29;47165;-82
2023/09/03 00:33:30;;;;;;;;;4.00;4.00;;;;;25.07;74.10;101497.19;4892320;29;44939;-81
2023/09/03 00:35:56;;;;;;;;;4.75;4.75;;;;;25.07;74.46;101499.03;4893456;29;44737;-81
2023/09/03 00:38:21;;;;;;;;;3.00;3.00;;;;;25.05;74.20;101498.19;4908617;29;45383;-81
2023/09/03 00:40:46;;;;;;;;;3.00;3.00;;;;;25.08;74.01;101515.28;4906949;29;48167;-81
2023/09/03 00:43:12;;;;;;;;;5.00;5.00;;;;;25.06;74.36;101505.41;4891088;29;45351;-81
2023/09/03 00:45:42;;;;;;;;;2.50;2.50;;;;;25.14;74.20;101506.91;4890590;29;45353;-82
2023/09/03 00:48:09;;;;;;;;;4.00;4.00;;;;;25.01;74.61;101510.13;4892523;29;44825;-81
2023/09/03 00:50:36;;;;;;;;;3.50;3.50;;;;;25.07;74.45;101509.91;4908343;28;45311;-82
2023/09/03 00:53:02;;;;;;;;;3.00;3.00;;;;;24.98;74.38;101508.38;4908581;28;45822;-82
2023/09/03 00:55:28;;;;;;;;;3.25;3.25;;;;;24.95;74.74;101506.66;4908865;29;44904;-82
2023/09/03 00:57:55;;;;;;;;;3.00;3.00;;;;;24.96;74.95;101507.53;4892684;28;45719;-81
2023/09/03 01:00:21;;;;;;;;;3.00;3.00;;;;;24.88;74.87;101486.03;4908008;28;45401;-80
2023/09/03 01:02:47;;;;;;;;;4.50;3.00;;;;;24.93;75.13;101511.25;4908797;28;45813;-81
2023/09/03 01:05:13;;;;;;;;;4.75;4.75;;;;;24.83;74.78;101504.34;4893361;29;44810;-80
2023/09/03 01:07:48;;;;;;;;;3.50;3.50;;;;;24.94;75.14;101513.06;4893579;28;44805;-81
2023/09/03 01:10:14;;;;;;;;;4.00;4.00;;;;;24.86;75.25;101509.69;4910346;28;45292;-80
2023/09/03 01:13:14;;;;;;;;;4.00;4.00;;;;;25.02;74.98;101503.72;4891697;28;45324;-81
2023/09/03 01:15:51;;;;;;;;;3.25;2.75;;;;;24.99;74.87;101495.69;4816227;29;45418;-80
2023/09/03 01:18:19;;;;;;;;;4.00;2.00;;;;;24.94;75.41;101491.28;4816797;29;45209;-81
2023/09/03 01:21:17;;;;;;;;;3.00;3.00;;;;;25.03;75.11;101495.53;4832107;29;45457;-80
2023/09/03 01:24:03;;;;;;;;;4.00;4.00;;;;;24.98;74.93;101477.56;4829892;29;44880;-81
2023/09/03 01:26:43;;;;;;;;;4.25;4.25;;;;;25.02;75.33;101476.50;4816779;29;45370;-82
2023/09/03 01:29:17;;;;;;;;;4.25;4.25;;;;;25.01;74.96;101472.91;4818121;29;45531;-81
2023/09/03 01:31:45;;;;;;;;;4.75;3.75;;;;;24.87;75.05;101467.06;4801965;29;46486;-81
2023/09/03 01:34:12;;;;;;;;;3.00;3.00;;;;;24.90;75.26;101472.38;4816861;29;44749;-81
2023/09/03 01:36:38;;;;;;;;;5.75;4.25;;;;;24.80;75.73;101471.78;4815249;29;44937;-81
2023/09/03 01:39:03;;;;;;;;;2.00;2.00;;;;;24.67;75.38;101443.25;4815784;29;45302;-80
2023/09/03 01:41:33;;;;;;;;;4.25;4.25;;;;;24.83;75.65;101449.94;4815526;29;47004;-81
2023/09/03 01:43:59;;;;;;;;;3.50;3.50;;;;;24.67;75.73;101449.56;4831762;29;45497;-81
2023/09/03 01:46:48;;;;;;;;;3.00;3.00;;;;;24.88;75.58;101441.59;4815561;29;45510;-82
2023/09/03 01:49:20;;;;;;;;;5.00;5.00;;;;;24.70;76.03;101454.00;4814748;29;44871;-81
2023/09/03 01:52:05;;;;;;;;;4.00;4.00;;;;;24.67;75.75;101448.69;4841074;29;45262;-81
2023/09/03 01:54:37;;;;;;;;;4.25;3.25;;;;;24.75;75.82;101439.31;4887212;29;45703;-81
2023/09/03 01:57:11;;;;;;;;;3.75;3.75;;;;;24.85;75.59;101453.50;4888236;29;45478;-81
2023/09/03 01:59:51;;;;;;;;;4.00;4.00;;;;;24.82;75.93;101453.59;4905012;29;45516;-81
2023/09/03 02:02:18;;;;;;;;;4.00;4.00;;;;;24.65;76.38;101445.13;4903761;29;45163;-81
2023/09/03 02:04:43;;;;;;;;;3.00;3.00;;;;;24.66;75.75;101452.31;4887076;29;45465;-81
2023/09/03 02:07:09;;;;;;;;;4.00;4.00;;;;;24.67;75.96;101443.25;4888403;29;45526;-81
2023/09/03 02:09:35;;;;;;;;;4.75;4.50;;;;;24.66;75.66;101457.75;4888422;29;45407;-82
2023/09/03 02:12:01;;;;;;;;;6.67;4.00;;;;;24.67;75.97;101454.13;4903110;29;45098;-81
2023/09/03 02:14:27;;;;;;;;;4.00;4.00;;;;;24.69;76.04;101461.28;4887690;29;45469;-80
2023/09/03 02:16:53;;;;;;;;;4.75;3.75;;;;;24.68;76.30;101461.31;4886701;29;44817;-83
2023/09/03 02:19:19;;;;;;;;;3.25;2.75;;;;;24.66;75.91;101479.53;4886581;29;45540;-82
2023/09/03 02:21:45;;;;;;;;;4.67;4.67;;;;;24.60;77.02;101474.28;4905230;29;45138;-81
2023/09/03 02:24:10;;;;;;;;;6.25;4.75;;;;;24.60;76.94;101485.16;4888048;29;44995;-83
2023/09/03 02:26:41;;;;;;;;;5.00;5.00;;;;;24.71;76.52;101477.56;4887901;29;44790;-81
2023/09/03 02:29:06;;;;;;;;;5.00;4.00;;;;;24.54;76.20;101478.09;4903817;29;45288;-82
2023/09/03 02:31:32;;;;;;;;;4.00;4.00;;;;;24.52;76.54;101472.72;4887012;29;46391;-80
2023/09/03 02:33:57;;;;;;;;;4.00;4.00;;;;;24.47;78.02;101479.22;4886171;29;45385;-80
2023/09/03 02:36:22;;;;;;;;;2.00;2.00;;;;;24.41;77.48;101473.97;4903634;29;45767;-81
2023/09/03 02:38:59;;;;;;;;;5.50;5.50;;;;;24.50;77.31;101482.75;4903920;29;44836;-81
2023/09/03 02:41:24;;;;;;;;;4.00;4.00;;;;;24.34;77.95;101478.72;4887346;29;47173;-81
2023/09/03 02:43:49;;;;;;;;;6.00;6.00;;;;;24.30;78.16;101472.50;4903603;28;45351;-82
2023/09/03 02:46:15;;;;;;;;;4.00;4.00;;;;;24.30;77.88;101477.03;4903178;29;45400;-82
2023/09/03 02:48:40;;;;;;;;;3.25;3.25;;;;;24.27;77.99;101474.41;4902102;29;44905;-81
2023/09/03 02:51:06;;;;;;;;;2.00;2.00;;;;;24.29;78.18;101484.28;4903691;29;45323;-81
2023/09/03 02:53:31;;;;;;;;;4.00;4.00;;;;;24.26;77.85;101491.63;4903245;29;45387;-82
2023/09/03 02:55:58;;;;;;;;;5.00;5.00;;;;;24.29;78.46;101486.13;4887195;29;44759;-82
2023/09/03 02:58:24;;;;;;;;;5.00;5.00;;;;;24.23;79.32;101492.63;4904295;29;44764;-81
2023/09/03 03:00:50;;;;;;;;;5.00;5.00;;;;;24.20;78.52;101497.25;4886201;29;46890;-81
2023/09/03 03:03:15;;;;;;;;;4.00;4.00;;;;;24.22;78.26;101500.81;4886416;29;45443;-80
2023/09/03 03:05:40;;;;;;;;;7.00;5.67;;;;;24.19;79.00;101500.94;4885380;29;45472;-81
2023/09/03 03:08:08;;;;;;;;;6.00;4.00;;;;;24.14;78.61;101498.38;4888659;29;45380;-82
2023/09/03 03:10:33;;;;;;;;;5.00;2.33;;;;;24.09;78.96;101501.19;4888018;29;46840;-81
2023/09/03 03:12:59;;;;;;;;;3.50;3.50;;;;;24.10;78.37;101505.72;4905477;29;44870;-79
2023/09/03 03:15:24;;;;;;;;;4.00;4.00;;;;;24.11;78.63;101507.47;4901814;29;44918;-80
2023/09/03 03:17:53;;;;;;;;;6.00;5.00;;;;;24.14;79.28;101493.81;4901619;29;44822;-80
2023/09/03 03:20:20;;;;;;;;;4.00;4.00;;;;;24.16;79.09;101502.81;4884740;29;47406;-79
2023/09/03 03:22:45;;;;;;;;;5.00;5.00;;;;;23.99;79.37;101488.81;4902800;29;44896;-79
2023/09/03 03:25:11;;;;;;;;;5.00;5.00;;;;;24.04;79.24;101508.63;4890155;29;45178;-79
2023/09/03 03:27:37;;;;;;;;;3.00;3.00;;;;;24.02;79.65;101505.06;4889522;29;45439;-80
2023/09/03 03:30:04;;;;;;;;;5.33;4.33;;;;;23.97;80.75;101504.28;4889357;29;46956;-79
2023/09/03 03:32:29;;;;;;;;;4.33;4.33;;;;;23.87;80.47;101502.78;4907090;29;44741;-79
2023/09/03 03:34:55;;;;;;;;;5.50;4.25;;;;;23.88;80.36;101504.56;4890101;29;45419;-79
2023/09/03 03:37:20;;;;;;;;;4.50;4.50;;;;;23.88;80.12;101507.28;4906593;29;45332;-79
2023/09/03 03:43:09;;;;;;;;;6.00;6.00;;;;;23.97;80.54;101515.16;4906425;29;44781;-79
2023/09/03 03:45:34;;;;;;;;;4.00;4.00;;;;;23.86;80.63;101515.47;4907949;29;44765;-78
2023/09/03 03:48:00;;;;;;;;;5.00;4.00;;;;;23.83;81.43;101518.28;4906435;29;45407;-79
2023/09/03 03:50:29;;;;;;;;;4.00;2.50;;;;;23.87;82.13;101517.25;4905791;29;45166;-81
2023/09/03 03:52:55;;;;;;;;;4.75;4.75;;;;;23.76;81.72;101538.38;4888457;29;45123;-79
2023/09/03 03:56:13;;;;;;;;;4.00;4.00;;;;;23.97;81.90;101528.75;4905262;29;44876;-79
2023/09/03 03:58:41;;;;;;;;;5.33;5.33;;;;;23.82;82.14;101534.63;4905415;29;44923;-79
2023/09/03 04:01:18;;;;;;;;;3.75;3.75;;;;;23.89;82.57;101541.66;4887845;29;47389;-79
2023/09/03 04:03:45;;;;;;;;;4.67;4.67;;;;;23.77;82.58;101551.03;4887844;29;45590;-79
2023/09/03 04:06:11;;;;;;;;;4.00;4.00;;;;;23.67;83.71;101555.84;4888917;29;44931;-78
2023/09/03 04:08:38;;;;;;;;;7.00;6.00;;;;;23.71;82.89;101554.81;4889749;29;45242;-79
2023/09/03 04:11:08;;;;;;;;;4.00;4.00;;;;;23.74;83.35;101548.41;4890308;28;47326;-80
2023/09/03 04:13:35;;;;;;;;;5.00;5.00;;;;;23.68;83.68;101560.31;4908177;29;44829;-79
2023/09/03 04:16:04;;;;;;;;;3.00;3.00;;;;;23.62;83.30;101552.34;4905117;29;45387;-80
2023/09/03 04:18:33;;;;;;;;;6.00;6.00;;;;;23.75;82.82;101559.22;4888102;29;45403;-79
2023/09/03 04:21:00;;;;;;;;;5.00;5.00;;;;;23.71;82.61;101553.91;4887820;29;47575;-79
2023/09/03 04:23:25;;;;;;;;;5.00;5.00;;;;;23.68;83.13;101560.31;4886208;29;45488;-79
2023/09/03 04:25:51;;;;;;;;;5.00;5.00;;;;;23.64;83.11;101552.31;4886744;29;45908;-80
2023/09/03 04:28:18;;;;;;;;;4.00;4.00;;;;;23.61;82.89;101558.69;4887889;29;44900;-78
2023/09/03 04:30:43;;;;;;;;;5.33;5.33;;;;;23.63;82.65;101567.72;4887999;29;46861;-78
2023/09/03 04:33:09;;;;;;;;;4.67;4.67;;;;;23.62;82.92;101565.91;4888319;29;45278;-82
2023/09/03 04:35:35;;;;;;;;;5.25;5.25;;;;;23.63;82.90;101554.13;4905769;29;44848;-79
2023/09/03 04:38:00;;;;;;;;;4.75;4.75;;;;;23.63;83.61;101566.78;4888520;29;45484;-78
2023/09/03 04:40:26;;;;;;;;;6.00;6.00;;;;;23.61;83.60;101563.22;4888627;29;47226;-79
2023/09/03 04:42:52;;;;;;;;;5.50;5.50;;;;;23.62;83.14;101576.78;4905536;29;44980;-79
2023/09/03 04:45:18;;;;;;;;;4.67;4.67;;;;;23.59;82.77;101576.84;4905339;29;45308;-79
2023/09/03 04:47:44;;;;;;;;;5.25;5.25;;;;;23.69;82.85;101578.41;4905131;29;44764;-79
2023/09/03 04:50:13;;;;;;;;;5.00;5.00;;;;;23.78;82.83;101566.41;4871351;29;47001;-79
2023/09/03 04:52:43;;;;;;;;;6.25;4.75;;;;;23.73;82.98;101563.81;4886570;29;45074;-80
2023/09/03 04:55:09;;;;;;;;;4.75;4.75;;;;;23.59;82.96;101560.53;4904513;29;44772;-80
2023/09/03 04:57:39;;;;;;;;;6.00;6.00;;;;;23.74;83.28;101570.13;4887207;28;45431;-78
2023/09/03 05:00:05;;;;;;;;;5.00;5.00;;;;;23.66;82.59;101569.44;4904542;29;45179;-79
2023/09/03 05:02:31;;;;;;;;;5.00;5.00;;;;;23.66;82.44;101572.16;4871343;29;44915;-80
2023/09/03 05:04:57;;;;;;;;;5.00;5.00;;;;;23.64;82.86;101569.47;4888374;29;45463;-79
2023/09/03 05:07:23;;;;;;;;;5.00;5.00;;;;;23.62;82.80;101576.78;4904407;29;45447;-80
2023/09/03 05:09:58;;;;;;;;;5.00;5.00;;;;;23.76;82.87;101582.72;4905271;29;45407;-79
2023/09/03 05:12:23;;;;;;;;;4.33;4.33;;;;;23.65;82.75;101592.09;4888208;29;45531;-79
2023/09/03 05:14:49;;;;;;;;;6.00;6.00;;;;;23.59;82.76;101587.69;4905472;29;45346;-78
2023/09/03 05:17:15;;;;;;;;;6.00;6.00;;;;;23.60;83.20;101589.50;4887664;29;44895;-78
2023/09/03 05:19:44;;;;;;;;;6.00;6.00;;;;;23.71;83.47;101583.78;4904600;29;44999;-78
2023/09/03 05:22:09;;;;;;;;;6.00;6.00;;;;;23.55;82.92;101591.44;4886635;29;45377;-78
2023/09/03 05:24:37;;;;;;;;;5.67;5.67;;;;;23.58;83.16;101590.47;4905153;29;44748;-80
2023/09/03 05:27:03;;;;;;;;;7.00;7.00;;;;;23.50;83.43;101590.69;4888391;29;44997;-81
2023/09/03 05:29:28;;;;;;;;;6.67;6.00;;;;;23.54;82.85;101590.56;4886521;29;47262;-80
2023/09/03 05:31:54;;;;;;;;;7.50;7.50;;;;;23.54;83.55;101589.66;4905572;29;45403;-81
2023/09/03 05:34:23;;;;;;;;;5.00;5.00;;;;;23.70;83.28;101588.31;4888428;29;45412;-80
2023/09/03 05:36:49;;;;;;;;;5.25;5.25;;;;;23.56;83.17;101598.66;4887002;29;45570;-81
2023/09/03 05:39:14;;;;;;;;;6.00;6.00;;;;;23.55;82.70;101596.88;4906169;29;45177;-81
2023/09/03 05:41:43;;;;;;;;;6.00;6.00;;;;;23.60;83.37;101602.19;4907022;29;44789;-81
2023/09/03 05:44:12;;;;;;;;;6.00;5.67;;;;;23.59;83.34;101604.00;4891595;29;44757;-81
2023/09/03 05:46:38;;;;;;;;;6.67;6.67;;;;;23.58;82.96;101615.81;4888610;29;45468;-80
2023/09/03 05:49:03;;;;;;;;;4.00;4.00;;;;;23.56;83.36;101629.41;4904266;29;45415;-81
2023/09/03 05:51:29;;;;;;;;;6.67;6.67;;;;;23.56;83.88;101625.81;4887119;29;45342;-81
2023/09/03 05:53:54;;;;;;;;;7.75;7.75;;;;;23.58;83.20;101623.06;4888419;29;45454;-81
2023/09/03 05:56:20;;;;;;;;;6.00;6.00;;;;;23.60;83.34;101622.09;4903931;29;45475;-80
2023/09/03 05:58:46;;;;;;;;;6.67;6.67;;;;;23.73;82.93;101622.66;4887341;29;47481;-80
2023/09/03 06:01:15;;;;;;;;;5.33;5.33;;;;;23.68;82.88;101620.06;4904476;29;44838;-81
2023/09/03 06:03:41;;;;;;;;;9.00;7.33;;;;;23.71;83.12;101630.84;4888137;29;44833;-81
2023/09/03 06:06:08;;;;;;;;;6.67;6.67;;;;;23.79;83.30;101624.34;4905410;29;45345;-80
2023/09/03 06:08:38;;;;;;;;;6.00;6.00;;;;;23.78;82.85;101633.44;4886488;29;45235;-81
2023/09/03 06:11:05;;;;;;;;;8.00;6.00;;;;;23.86;82.97;101645.00;4903367;29;45344;-81
2023/09/03 06:13:33;;;;;;;;;6.00;6.00;;;;;23.92;82.72;101650.25;4903841;29;45440;-81
2023/09/03 06:15:59;;;;;;;;;10.33;7.67;;;;;23.93;82.60;101654.75;4904087;29;44792;-81
2023/09/03 06:18:25;;;;;;;;;5.00;5.00;;;;;23.99;82.42;101650.97;4887683;29;47466;-80
2023/09/03 06:20:54;;;;;;;;;6.33;6.33;;;;;24.09;81.63;101642.50;4904840;29;45477;-80
2023/09/03 06:23:20;;;;;;;;;7.00;7.00;;;;;24.13;81.42;101644.22;4894012;28;44859;-81
2023/09/03 06:25:46;;;;;;;;;8.00;6.33;;;;;24.17;81.36;101640.47;4885389;29;45504;-81
2023/09/03 06:28:12;;;;;;;;;5.00;5.00;;;;;24.20;81.14;101644.03;4883455;29;46971;-81
2023/09/03 06:30:38;;;;;;;;;6.67;5.33;;;;;24.25;80.92;101658.41;4884345;29;45511;-82
2023/09/03 06:33:04;;;;;;;;;5.00;5.00;;;;;24.25;80.71;101666.56;4868899;29;44810;-81
2023/09/03 06:36:12;;;;;;;;;6.50;6.50;;;;;24.51;80.19;101668.56;4885764;29;45391;-81
2023/09/03 06:38:41;;;;;;;;;5.33;5.33;;;;;24.34;80.25;101667.19;4886392;29;45516;-81
2023/09/03 06:41:07;;;;;;;;;5.00;5.00;;;;;24.45;80.22;101663.28;4885056;29;45206;-81
2023/09/03 06:43:32;;;;;;;;;6.00;6.00;;;;;24.53;79.59;101664.84;4884777;29;45238;-81
2023/09/03 06:45:57;;;;;;;;;6.00;5.33;;;;;24.55;79.16;101660.25;4886605;29;44930;-80
2023/09/03 06:48:23;;;;;;;;;5.33;5.33;;;;;24.66;78.67;101675.38;4886535;29;46956;-79
2023/09/03 06:50:48;;;;;;;;;7.00;7.00;;;;;24.69;78.53;101680.72;4886422;29;44795;-80
2023/09/03 06:53:14;;;;;;;;;9.00;8.00;;;;;24.64;78.41;101678.16;4886349;29;45430;-81
2023/09/03 06:55:42;;;;;;;;;7.33;7.00;;;;;24.81;78.43;101674.03;4885746;29;45449;-80
2023/09/03 06:58:08;;;;;;;;;6.00;6.00;;;;;24.75;78.42;101680.53;4869433;29;46790;-80
2023/09/03 07:01:11;;;;;;;;;7.00;5.00;;;;;24.99;77.89;101673.47;4872548;29;44785;-80
2023/09/03 07:03:37;;;;;;;;;9.00;8.00;;;;;24.81;77.67;101674.91;4873581;29;44905;-80
2023/09/03 07:06:03;;;;;;;;;5.67;5.67;;;;;24.88;77.56;101668.31;4874582;29;44798;-80
2023/09/03 07:08:29;;;;;;;;;6.00;6.00;;;;;24.94;77.17;101680.88;4888801;29;46893;-81
2023/09/03 07:11:00;;;;;;;;;6.50;5.75;;;;;25.19;76.87;101680.09;4856921;29;45517;-81
2023/09/03 07:13:25;;;;;;;;;8.00;6.00;;;;;25.15;76.49;101684.75;4890049;29;44806;-81
2023/09/03 07:15:50;;;;;;;;;7.33;6.00;;;;;25.23;76.49;101684.53;4889565;29;44888;-81
2023/09/03 07:18:16;;;;;;;;;5.33;5.33;;;;;25.37;75.69;101686.81;4890465;29;45303;-81
2023/09/03 07:20:41;;;;;;;;;6.00;4.50;;;;;25.38;75.14;101684.03;4890270;29;45367;-83
2023/09/03 07:23:07;;;;;;;;;7.00;7.00;;;;;25.43;74.77;101687.53;4874545;29;45281;-83
2023/09/03 07:25:39;;;;;;;;;5.00;5.00;;;;;25.62;74.17;101706.84;4874238;29;45356;-84
2023/09/03 07:28:05;;;;;;;;;6.33;6.33;;;;;25.67;74.12;101702.16;4875589;29;47633;-84
2023/09/03 07:30:39;;;;;;;;;6.00;6.00;;;;;25.93;73.71;101700.38;4890323;29;44793;-83
2023/09/03 07:33:04;;;;;;;;;6.67;6.67;;;;;25.79;73.22;101703.53;4889090;29;45543;-83
2023/09/03 07:35:31;;;;;;;;;6.00;6.00;;;;;25.83;72.15;101694.31;4891417;29;45530;-83
2023/09/03 07:37:58;;;;;;;;;7.33;6.00;;;;;25.82;72.25;101692.56;4875242;29;47042;-84
2023/09/03 07:40:24;;;;;;;;;5.00;5.00;;;;;25.92;72.13;101693.16;4892539;29;45392;-83
2023/09/03 07:42:50;;;;;;;;;6.00;5.33;;;;;26.01;71.76;101681.91;4875993;29;45508;-82
2023/09/03 07:45:15;;;;;;;;;6.00;5.67;;;;;26.10;71.54;101681.59;4876650;29;45654;-83
2023/09/03 07:47:41;;;;;;;;;5.25;5.25;;;;;26.26;71.41;101681.06;4892330;29;46197;-83
2023/09/03 07:50:07;;;;;;;;;4.67;4.67;;;;;26.37;70.49;101667.91;4889404;29;45669;-83
2023/09/03 07:52:32;;;;;;;;;5.00;5.00;;;;;26.45;70.39;101671.22;4873047;29;45583;-82
2023/09/03 07:54:58;;;;;;;;;6.25;5.00;;;;;26.50;70.08;101661.06;4887986;29;45412;-83
2023/09/03 07:57:23;;;;;;;;;5.25;3.75;;;;;26.63;68.29;101671.53;4872722;29;47396;-83
2023/09/03 07:59:52;;;;;;;;;5.50;5.50;;;;;26.65;67.67;101647.78;4888986;29;45450;-83
2023/09/03 08:02:17;;;;;;;;;4.75;4.75;;;;;26.60;68.26;101668.91;4888235;29;45344;-83
2023/09/03 08:04:44;;;;;;;;;6.25;6.00;;;;;26.67;68.59;101667.72;4889263;29;45469;-82
2023/09/03 08:07:10;;;;;;;;;4.25;4.25;;;;;26.72;67.75;101680.25;4872584;29;45644;-82
2023/09/03 08:09:36;;;;;;;;;6.00;5.50;;;;;26.76;67.46;101667.34;4888728;29;45524;-82
2023/09/03 08:12:01;;;;;;;;;7.00;7.00;;;;;26.85;67.37;101668.84;4889759;29;45891;-83
2023/09/03 08:14:27;;;;;;;;;4.00;4.00;;;;;27.01;68.18;101671.88;4888856;29;45591;-83
2023/09/03 08:16:53;;;;;;;;;7.00;5.50;;;;;27.10;67.48;101675.09;4889907;29;47410;-83
2023/09/03 08:19:18;;;;;;;;;6.00;5.75;;;;;27.20;66.57;101680.19;4891163;29;44946;-82
2023/09/03 08:21:44;;;;;;;;;4.33;4.33;;;;;27.19;66.93;101662.00;4891602;29;45544;-83
2023/09/03 08:24:10;;;;;;;;;6.50;4.75;;;;;27.29;66.19;101672.56;4890370;29;45431;-83
2023/09/03 08:26:35;;;;;;;;;4.50;4.50;;;;;27.37;65.91;101663.13;4858149;29;49011;-84
2023/09/03 08:29:04;;;;;;;;;4.25;4.25;;;;;27.56;64.98;101655.97;4873398;29;45509;-83
2023/09/03 08:31:29;;;;;;;;;6.50;5.50;;;;;27.41;64.60;101662.06;4890535;29;45465;-82
2023/09/03 08:33:56;;;;;;;;;8.25;5.75;;;;;27.44;65.40;101662.81;4872665;29;45473;-83
2023/09/03 08:36:22;;;;;;;;;5.25;4.75;;;;;27.57;65.47;101646.81;4886848;29;48620;-81
2023/09/03 08:38:48;;;;;;;;;2.75;2.75;;;;;27.68;65.01;101654.53;4888553;29;45392;-83
2023/09/03 08:41:14;;;;;;;;;4.50;4.50;;;;;27.76;64.36;101665.16;4889377;29;45461;-83
2023/09/03 08:43:40;;;;;;;;;5.25;5.25;;;;;27.65;64.11;101661.03;4890708;29;44801;-83
2023/09/03 08:46:15;;;;;;;;;6.50;6.50;;;;;27.88;64.11;101670.13;4889859;29;46201;-83
2023/09/03 08:48:43;;;;;;;;;4.25;4.25;;;;;27.92;64.55;101664.44;4873254;29;44988;-83
2023/09/03 08:51:10;;;;;;;;;5.75;5.75;;;;;27.99;63.75;101670.50;4887121;29;45373;-83
2023/09/03 08:53:37;;;;;;;;;6.00;6.00;;;;;28.20;64.44;101665.03;4871737;29;45455;-83
2023/09/03 08:56:03;;;;;;;;;5.50;5.50;;;;;28.27;63.87;101669.28;4888259;29;45517;-83
2023/09/03 08:58:33;;;;;;;;;5.00;5.00;;;;;28.57;62.78;101671.63;4886056;29;45416;-83
2023/09/03 09:01:02;;;;;;;;;5.00;5.00;;;;;28.45;61.19;101671.19;4885437;29;45357;-83
2023/09/03 09:03:29;;;;;;;;;8.00;5.25;;;;;28.39;61.51;101668.72;4885431;29;45456;-83
2023/09/03 09:05:55;;;;;;;;;5.25;5.25;;;;;28.39;62.05;101668.72;4869251;29;47144;-83
2023/09/03 09:08:23;;;;;;;;;7.00;7.00;;;;;28.60;61.54;101669.63;4869513;29;45382;-83
2023/09/03 09:10:51;;;;;;;;;7.00;4.00;;;;;28.65;60.43;101674.88;4885068;29;45497;-83
2023/09/03 09:13:24;;;;;;;;;6.25;6.25;;;;;28.67;60.46;101667.47;4885933;29;45802;-83
2023/09/03 09:15:49;;;;;;;;;4.00;4.00;;;;;28.65;60.57;101685.84;4886170;29;46095;-83
2023/09/03 09:18:15;;;;;;;;;6.75;6.75;;;;;28.76;61.00;101680.72;4869323;29;45413;-82
2023/09/03 09:20:41;;;;;;;;;5.75;4.00;;;;;28.84;60.79;101670.28;4867523;29;45483;-83
2023/09/03 09:23:07;;;;;;;;;6.25;6.25;;;;;28.93;59.85;101679.94;4884470;29;45435;-83
2023/09/03 09:25:35;;;;;;;;;4.00;3.25;;;;;28.99;59.64;101678.75;4886354;29;46067;-83
2023/09/03 09:28:10;;;;;;;;;6.00;5.75;;;;;29.16;59.15;101680.69;4868190;29;45377;-83
2023/09/03 09:30:36;;;;;;;;;6.50;5.00;;;;;29.03;58.60;101674.91;4884050;29;44776;-83
2023/09/03 09:33:13;;;;;;;;;7.00;6.33;;;;;29.28;57.57;101689.19;4886826;29;45336;-82
2023/09/03 09:35:38;;;;;;;;;4.25;4.25;;;;;29.11;57.38;101690.03;4870873;29;46910;-82
2023/09/03 09:38:05;;;;;;;;;5.25;5.25;;;;;29.09;57.61;101682.81;4885699;29;45361;-84
2023/09/03 09:40:31;;;;;;;;;5.67;5.00;;;;;29.15;58.12;101688.03;4884747;29;45358;-83
2023/09/03 09:43:03;;;;;;;;;5.33;5.00;;;;;29.20;57.13;101687.78;4885987;29;45890;-83
2023/09/03 09:45:31;;;;;;;;;6.33;4.33;;;;;29.28;57.42;101691.03;4885461;29;45371;-83
2023/09/03 09:48:16;;;;;;;;;5.67;5.67;;;;;29.41;57.07;101696.78;4883648;29;45373;-84
2023/09/03 09:50:44;;;;;;;;;7.00;5.00;;;;;29.38;57.75;101686.00;4882784;29;45359;-84
2023/09/03 09:53:29;;;;;;;;;5.33;5.33;;;;;29.61;55.90;101688.47;4867407;29;45429;-83
2023/09/03 09:56:09;;;;;;;;;6.67;6.67;;;;;29.61;55.84;101696.69;4866496;29;47841;-83
2023/09/03 09:58:40;;;;;;;;;3.00;3.00;;;;;29.71;56.73;101689.81;4882961;29;45657;-83
2023/09/03 10:01:06;;;;;;;;;7.75;6.00;;;;;29.74;55.57;101693.38;4883612;29;45427;-84
2023/09/03 10:03:45;;;;;;;;;5.75;5.75;;;;;29.97;55.23;101689.41;4884264;29;45354;-83
2023/09/03 10:06:13;;;;;;;;;7.00;5.00;;;;;29.91;55.33;101685.13;4866987;29;47308;-83
2023/09/03 10:08:39;;;;;;;;;4.50;4.50;;;;;29.91;55.40;101677.81;4884292;29;45443;-83
2023/09/03 10:11:04;;;;;;;;;5.50;5.50;;;;;29.94;54.60;101667.66;4881783;29;45375;-82
2023/09/03 10:13:31;;;;;;;;;5.00;5.00;;;;;30.15;54.14;101687.56;4883034;29;45383;-83
2023/09/03 10:16:02;;;;;;;;;5.25;5.25;;;;;30.26;54.74;101676.91;4883082;29;47239;-83
2023/09/03 10:18:27;;;;;;;;;4.75;4.75;;;;;30.27;54.55;101678.66;4883007;29;45745;-83
2023/09/03 10:20:56;;;;;;;;;6.00;4.75;;;;;30.49;54.74;101675.69;4884566;29;44943;-83
2023/09/03 10:23:25;;;;;;;;;7.25;6.25;;;;;30.60;54.70;101677.81;4893860;29;44839;-84
2023/09/03 10:25:52;;;;;;;;;5.75;5.75;;;;;30.56;53.26;101670.72;4887331;29;49019;-84
2023/09/03 10:28:24;;;;;;;;;3.50;3.00;;;;;30.70;52.06;101681.81;4903014;29;45424;-83
2023/09/03 10:30:54;;;;;;;;;6.00;5.00;;;;;30.61;52.40;101679.59;4904057;29;45555;-83
2023/09/03 10:33:19;;;;;;;;;5.25;5.25;;;;;30.63;52.51;101677.66;4905443;29;45383;-84
2023/09/03 10:42:28;;;;;;;;;3.25;3.25;;;;;30.74;52.81;101679.81;4903825;29;45346;-83
2023/09/03 10:44:59;;;;;;;;;3.00;3.00;;;;;30.90;52.38;101683.50;4905258;29;45603;-84
2023/09/03 10:47:25;;;;;;;;;9.00;7.00;;;;;30.94;52.27;101686.97;4887524;29;47009;-81
2023/09/03 10:49:52;;;;;;;;;5.00;5.00;;;;;30.97;51.36;101679.44;4888416;29;44923;-81
2023/09/03 10:52:39;;;;;;;;;5.25;5.25;;;;;31.16;52.01;101690.25;4888595;29;45317;-81
2023/09/03 10:55:20;;;;;;;;;5.00;3.75;;;;;31.26;52.17;101691.47;4905652;29;44765;-80
2023/09/03 10:58:10;;;;;;;;;4.00;4.00;;;;;31.24;51.11;101687.94;4886769;29;47290;-80
2023/09/03 11:00:36;;;;;;;;;5.25;5.25;;;;;31.10;51.88;101685.09;4904067;29;44852;-81
2023/09/03 11:06:25;;;;;;;;;4.50;4.50;;;;;31.24;51.37;101685.19;4904904;29;44853;-80
2023/09/03 11:09:21;;;;;;;;;5.75;4.75;;;;;31.38;51.61;101680.75;4886539;29;47759;-80
2023/09/03 11:11:46;;;;;;;;;6.00;6.00;;;;;31.23;51.26;101672.44;4905042;29;45370;-80
2023/09/03 11:14:13;;;;;;;;;4.75;4.75;;;;;31.30;52.45;101671.09;4904413;29;45570;-80
2023/09/03 11:16:42;;;;;;;;;8.25;7.75;;;;;31.35;50.35;101667.19;4871826;29;44821;-80
2023/09/03 11:19:09;;;;;;;;;5.75;4.75;;;;;31.25;49.94;101667.75;4905866;29;45383;-80
2023/09/03 11:21:36;;;;;;;;;5.25;5.25;;;;;31.30;51.34;101673.84;4905141;29;45466;-80
2023/09/03 11:24:14;;;;;;;;;6.00;4.25;;;;;31.45;49.39;101665.69;4888396;29;44795;-81
2023/09/03 11:26:40;;;;;;;;;5.33;5.33;;;;;31.31;51.13;101669.25;4885034;29;44868;-81
2023/09/03 11:29:26;;;;;;;;;6.67;6.67;;;;;31.47;50.49;101663.72;4868808;29;46263;-81
2023/09/03 11:31:51;;;;;;;;;4.75;4.25;;;;;31.29;50.59;101655.59;4887425;29;45426;-81
2023/09/03 11:34:28;;;;;;;;;7.00;6.00;;;;;31.52;50.32;101661.63;4886188;29;45289;-81
2023/09/03 11:36:55;;;;;;;;;6.00;6.00;;;;;31.51;50.53;101657.09;4884405;29;44936;-81
2023/09/03 11:39:21;;;;;;;;;6.00;6.00;;;;;31.58;51.03;101650.25;4885171;29;45136;-81
2023/09/03 11:42:08;;;;;;;;;5.50;5.00;;;;;31.69;50.70;101653.25;4868479;29;45425;-81
2023/09/03 11:44:33;;;;;;;;;6.00;6.00;;;;;31.74;50.78;101655.72;4886779;29;44889;-81